Time;durP1;ratioP1;P1;durP2;ratioP2;P2;SDS_P1;SDS_P2;PMS_P1;PMS_P2;Temp;Humidity;BMP_temperature;BMP_pressure;BME280_temperature;BME280_humidity;BME280_pressure;Samples;Min_cycle;Max_cycle;Signal;HPM_P1;HPM_P2
2022/08/26 00:02:20;;;;;;;6.60;6.00;;;;;;;;;;5071595;28;20460;-74
2022/08/26 00:04:47;;;;;;;7.07;6.57;;;;;;;;;;5070501;28;20438;-75
2022/08/26 00:07:14;;;;;;;7.47;6.87;;;;;;;;;;5069899;28;20927;-75
2022/08/26 00:09:41;;;;;;;8.03;6.70;;;;;;;;;;5067751;28;20418;-74
2022/08/26 00:12:09;;;;;;;7.50;7.00;;;;;;;;;;5050056;28;20446;-75
2022/08/26 00:14:37;;;;;;;7.37;6.70;;;;;;;;;;5049590;28;20445;-74
2022/08/26 00:17:04;;;;;;;6.73;6.23;;;;;;;;;;5049979;28;20547;-75
2022/08/26 00:19:31;;;;;;;6.90;6.30;;;;;;;;;;5049361;28;20474;-75
2022/08/26 00:21:58;;;;;;;6.63;6.13;;;;;;;;;;5049749;28;20648;-74
2022/08/26 00:24:25;;;;;;;7.23;6.60;;;;;;;;;;5049470;28;20441;-74
2022/08/26 00:26:52;;;;;;;8.10;7.33;;;;;;;;;;5049824;28;20984;-74
2022/08/26 00:29:20;;;;;;;7.13;6.73;;;;;;;;;;5050330;28;20512;-74
2022/08/26 00:31:48;;;;;;;6.93;6.43;;;;;;;;;;5052182;28;20449;-73
2022/08/26 00:34:15;;;;;;;6.40;5.90;;;;;;;;;;5053164;28;20507;-75
2022/08/26 00:36:42;;;;;;;8.13;6.97;;;;;;;;;;5051221;28;20468;-74
2022/08/26 00:39:10;;;;;;;6.57;6.07;;;;;;;;;;5055836;28;20523;-74
2022/08/26 00:41:39;;;;;;;7.20;6.70;;;;;;;;;;5062171;28;20446;-75
2022/08/26 00:44:06;;;;;;;7.63;7.00;;;;;;;;;;5061065;28;20446;-74
2022/08/26 00:46:35;;;;;;;7.20;6.70;;;;;;;;;;5061204;28;20523;-74
2022/08/26 00:49:12;;;;;;;7.60;7.10;;;;;;;;;;5060994;28;20446;-74
2022/08/26 00:51:43;;;;;;;7.20;6.70;;;;;;;;;;5061559;28;20440;-75
2022/08/26 00:54:10;;;;;;;7.20;6.67;;;;;;;;;;5054418;28;20529;-75
2022/08/26 00:56:39;;;;;;;7.50;6.80;;;;;;;;;;5061598;28;20461;-74
2022/08/26 00:59:07;;;;;;;7.90;7.20;;;;;;;;;;5054100;28;20803;-75
2022/08/26 01:01:34;;;;;;;8.00;7.43;;;;;;;;;;5049882;28;20838;-74
2022/08/26 01:04:02;;;;;;;7.50;7.00;;;;;;;;;;5054732;28;20445;-74
2022/08/26 01:06:31;;;;;;;7.20;6.60;;;;;;;;;;5055117;28;20871;-74
2022/08/26 01:08:58;;;;;;;7.87;7.27;;;;;;;;;;5052973;28;20488;-74
2022/08/26 01:11:25;;;;;;;6.90;6.50;;;;;;;;;;5051624;28;20866;-76
2022/08/26 01:13:53;;;;;;;6.77;6.27;;;;;;;;;;5054210;28;20445;-75
2022/08/26 01:16:20;;;;;;;7.10;6.50;;;;;;;;;;5054857;28;20465;-74
2022/08/26 01:18:47;;;;;;;7.60;6.90;;;;;;;;;;5055085;28;20519;-74
2022/08/26 01:21:17;;;;;;;7.60;7.00;;;;;;;;;;5054224;28;20477;-74
2022/08/26 01:23:48;;;;;;;7.73;7.03;;;;;;;;;;5053418;28;20832;-74
2022/08/26 01:26:17;;;;;;;7.77;7.27;;;;;;;;;;5053284;28;20465;-74
2022/08/26 01:28:44;;;;;;;8.27;7.60;;;;;;;;;;5054010;28;20441;-74
2022/08/26 01:31:12;;;;;;;8.47;7.77;;;;;;;;;;5053827;28;20515;-75
2022/08/26 01:33:43;;;;;;;9.50;7.60;;;;;;;;;;5053300;28;20510;-75
2022/08/26 01:36:10;;;;;;;8.20;7.43;;;;;;;;;;5053282;28;20515;-74
2022/08/26 01:38:37;;;;;;;8.17;7.57;;;;;;;;;;5053196;28;20945;-74
2022/08/26 01:41:06;;;;;;;8.33;7.53;;;;;;;;;;5053696;28;20539;-75
2022/08/26 01:43:34;;;;;;;8.37;7.70;;;;;;;;;;5052585;28;21079;-75
2022/08/26 01:46:02;;;;;;;8.20;7.60;;;;;;;;;;5052935;28;20852;-75
2022/08/26 01:48:30;;;;;;;8.33;7.63;;;;;;;;;;5053232;28;20445;-75
2022/08/26 01:50:57;;;;;;;7.70;7.20;;;;;;;;;;5053999;28;20503;-74
2022/08/26 01:53:25;;;;;;;7.90;7.20;;;;;;;;;;5053793;28;20442;-74
2022/08/26 01:55:55;;;;;;;7.80;7.20;;;;;;;;;;5054721;28;20580;-74
2022/08/26 01:58:25;;;;;;;8.23;7.53;;;;;;;;;;5063506;28;20525;-74
2022/08/26 02:00:52;;;;;;;8.10;7.40;;;;;;;;;;5070901;28;20469;-74
2022/08/26 02:03:21;;;;;;;8.50;7.83;;;;;;;;;;5064684;28;20450;-75
2022/08/26 02:05:51;;;;;;;7.73;7.03;;;;;;;;;;5052830;28;20469;-75
2022/08/26 02:08:18;;;;;;;8.67;7.97;;;;;;;;;;5053547;28;20481;-75
2022/08/26 02:10:46;;;;;;;7.97;7.20;;;;;;;;;;5053029;28;20449;-76
2022/08/26 02:13:13;;;;;;;7.43;6.93;;;;;;;;;;5053147;28;20499;-75
2022/08/26 02:15:43;;;;;;;8.43;7.73;;;;;;;;;;5053145;28;20487;-75
2022/08/26 02:18:10;;;;;;;8.53;7.63;;;;;;;;;;5052792;28;20450;-75
2022/08/26 02:20:38;;;;;;;8.43;7.73;;;;;;;;;;5052521;28;20477;-75
2022/08/26 02:23:05;;;;;;;8.40;7.77;;;;;;;;;;5054880;28;20445;-75
2022/08/26 02:25:35;;;;;;;8.53;7.47;;;;;;;;;;5056638;28;20438;-74
2022/08/26 02:28:02;;;;;;;8.27;7.43;;;;;;;;;;5057125;28;20453;-75
2022/08/26 02:30:31;;;;;;;7.97;7.17;;;;;;;;;;5055087;28;20434;-75
2022/08/26 02:33:02;;;;;;;8.20;7.37;;;;;;;;;;5053477;28;20532;-75
2022/08/26 02:35:30;;;;;;;8.07;7.47;;;;;;;;;;5052596;28;20452;-74
2022/08/26 02:37:57;;;;;;;7.83;7.13;;;;;;;;;;5057300;28;20449;-75
2022/08/26 02:40:26;;;;;;;8.17;7.47;;;;;;;;;;5059558;28;20569;-74
2022/08/26 02:42:53;;;;;;;8.40;7.80;;;;;;;;;;5069710;28;20445;-74
2022/08/26 02:45:20;;;;;;;8.40;7.70;;;;;;;;;;5063125;28;20453;-73
2022/08/26 02:47:48;;;;;;;8.47;7.87;;;;;;;;;;5054492;28;20917;-74
2022/08/26 02:50:16;;;;;;;9.27;8.37;;;;;;;;;;5055186;28;20492;-74
2022/08/26 02:52:43;;;;;;;8.40;7.80;;;;;;;;;;5053528;28;20504;-75
2022/08/26 02:55:10;;;;;;;8.20;7.70;;;;;;;;;;5052135;28;21052;-75
2022/08/26 02:57:37;;;;;;;8.77;7.83;;;;;;;;;;5052436;28;20458;-75
2022/08/26 03:00:05;;;;;;;8.60;7.33;;;;;;;;;;5051905;28;20839;-74
2022/08/26 03:02:32;;;;;;;7.80;7.13;;;;;;;;;;5051988;28;20450;-75
2022/08/26 03:04:59;;;;;;;7.90;7.30;;;;;;;;;;5052124;28;20453;-75
2022/08/26 03:07:27;;;;;;;7.80;7.17;;;;;;;;;;5051677;28;20845;-74
2022/08/26 03:09:55;;;;;;;8.50;7.80;;;;;;;;;;5051881;28;20445;-75
2022/08/26 03:12:22;;;;;;;8.17;7.60;;;;;;;;;;5052293;28;20495;-75
2022/08/26 03:14:49;;;;;;;8.13;7.50;;;;;;;;;;5051800;28;20523;-75
2022/08/26 03:17:16;;;;;;;8.30;7.70;;;;;;;;;;5052154;28;20519;-74
2022/08/26 03:19:43;;;;;;;7.73;7.17;;;;;;;;;;5051550;28;20836;-74
2022/08/26 03:22:10;;;;;;;8.90;8.10;;;;;;;;;;5051675;28;20551;-74
2022/08/26 03:24:39;;;;;;;8.33;7.73;;;;;;;;;;5051555;28;20534;-75
2022/08/26 03:27:06;;;;;;;8.00;7.43;;;;;;;;;;5051341;28;20462;-75
2022/08/26 03:32:19;;;;;;;8.13;7.43;;;;;;;;;;5051912;28;20494;-74
2022/08/26 03:34:46;;;;;;;7.53;6.83;;;;;;;;;;5051504;28;20471;-74
2022/08/26 03:37:13;;;;;;;8.50;7.80;;;;;;;;;;5051521;28;20469;-74
2022/08/26 03:39:42;;;;;;;8.20;7.60;;;;;;;;;;5051138;28;20946;-76
2022/08/26 03:42:09;;;;;;;8.20;7.60;;;;;;;;;;5051633;28;20857;-75
2022/08/26 03:44:36;;;;;;;8.23;7.57;;;;;;;;;;5051300;28;20495;-75
2022/08/26 03:47:04;;;;;;;8.10;7.30;;;;;;;;;;5051367;28;20999;-75
2022/08/26 03:49:33;;;;;;;9.53;8.67;;;;;;;;;;5051761;28;20460;-74
2022/08/26 03:52:00;;;;;;;9.87;9.07;;;;;;;;;;5051416;28;20446;-75
2022/08/26 03:54:27;;;;;;;8.93;8.10;;;;;;;;;;5051520;28;21113;-74
2022/08/26 03:56:55;;;;;;;9.27;8.47;;;;;;;;;;5051849;28;20462;-74
2022/08/26 03:59:22;;;;;;;11.47;10.47;;;;;;;;;;5052374;28;20441;-74
2022/08/26 04:01:49;;;;;;;10.53;9.63;;;;;;;;;;5052970;28;20478;-74
2022/08/26 04:04:17;;;;;;;9.83;8.87;;;;;;;;;;5052523;28;20499;-75
2022/08/26 04:06:44;;;;;;;11.07;10.00;;;;;;;;;;5043219;28;20469;-75
2022/08/26 04:09:12;;;;;;;10.67;9.87;;;;;;;;;;5049626;28;20471;-75
2022/08/26 04:11:40;;;;;;;13.03;9.77;;;;;;;;;;5049828;28;20445;-74
2022/08/26 04:14:12;;;;;;;10.30;9.40;;;;;;;;;;5051474;28;20445;-75
2022/08/26 04:16:39;;;;;;;11.30;10.47;;;;;;;;;;5051505;28;20476;-75
2022/08/26 04:19:06;;;;;;;11.83;10.70;;;;;;;;;;5051352;28;20797;-75
2022/08/26 04:21:33;;;;;;;11.87;10.77;;;;;;;;;;5051292;28;20504;-74
2022/08/26 04:24:00;;;;;;;11.77;9.93;;;;;;;;;;5051822;28;20453;-74
2022/08/26 04:26:27;;;;;;;10.30;9.50;;;;;;;;;;5051402;28;20465;-75
2022/08/26 04:28:55;;;;;;;10.97;9.97;;;;;;;;;;5048644;28;20450;-74
2022/08/26 04:31:25;;;;;;;11.13;10.13;;;;;;;;;;5050577;28;20503;-75
2022/08/26 04:33:52;;;;;;;11.20;10.20;;;;;;;;;;5050267;28;20444;-75
2022/08/26 04:36:19;;;;;;;11.50;10.50;;;;;;;;;;5050909;28;20492;-75
2022/08/26 04:38:46;;;;;;;11.47;10.37;;;;;;;;;;5050805;28;20451;-74
2022/08/26 04:41:13;;;;;;;11.10;10.20;;;;;;;;;;5051098;28;20477;-75
2022/08/26 04:43:40;;;;;;;12.10;10.90;;;;;;;;;;5051019;28;20479;-75
2022/08/26 04:46:08;;;;;;;11.13;10.23;;;;;;;;;;5051011;28;20500;-74
2022/08/26 04:48:36;;;;;;;10.87;9.80;;;;;;;;;;5051341;28;20433;-74
2022/08/26 04:51:04;;;;;;;11.50;10.40;;;;;;;;;;5051054;28;20499;-75
2022/08/26 04:53:31;;;;;;;11.00;10.00;;;;;;;;;;5050666;28;20442;-74
2022/08/26 04:55:58;;;;;;;10.60;9.70;;;;;;;;;;5050542;28;20477;-74
2022/08/26 04:58:26;;;;;;;12.37;11.47;;;;;;;;;;5051766;28;20838;-75
2022/08/26 05:00:54;;;;;;;10.17;9.27;;;;;;;;;;5047190;28;20473;-74
2022/08/26 05:03:22;;;;;;;11.93;10.60;;;;;;;;;;5045391;28;20523;-74
2022/08/26 05:05:50;;;;;;;11.10;9.90;;;;;;;;;;5050898;28;20553;-74
2022/08/26 05:08:18;;;;;;;10.53;9.43;;;;;;;;;;5050874;28;20829;-75
2022/08/26 05:10:47;;;;;;;11.87;10.30;;;;;;;;;;5050838;28;20445;-74
2022/08/26 05:13:15;;;;;;;11.27;10.17;;;;;;;;;;5050453;28;20478;-75
2022/08/26 05:15:42;;;;;;;11.87;10.87;;;;;;;;;;5050895;28;20473;-75
2022/08/26 05:18:09;;;;;;;11.00;10.00;;;;;;;;;;5052954;28;20828;-74
2022/08/26 05:20:39;;;;;;;10.27;9.47;;;;;;;;;;5054137;28;20441;-75
2022/08/26 05:23:08;;;;;;;11.63;10.23;;;;;;;;;;5054224;28;20441;-76
2022/08/26 05:25:37;;;;;;;10.83;10.03;;;;;;;;;;5054092;28;20515;-75
2022/08/26 05:28:04;;;;;;;10.77;9.70;;;;;;;;;;5053924;28;20441;-75
2022/08/26 05:30:31;;;;;;;10.07;9.37;;;;;;;;;;5054304;28;20445;-74
2022/08/26 05:32:58;;;;;;;10.17;9.37;;;;;;;;;;5053798;28;20429;-74
2022/08/26 05:35:30;;;;;;;11.40;10.30;;;;;;;;;;5054105;28;20451;-74
2022/08/26 05:37:57;;;;;;;9.70;8.90;;;;;;;;;;5054293;28;20541;-75
2022/08/26 05:40:26;;;;;;;11.20;10.30;;;;;;;;;;5054239;28;20642;-75
2022/08/26 05:42:53;;;;;;;11.40;10.50;;;;;;;;;;5053963;28;20485;-75
2022/08/26 05:45:22;;;;;;;13.83;9.73;;;;;;;;;;5053914;28;20441;-74
2022/08/26 05:47:50;;;;;;;11.27;9.87;;;;;;;;;;5053598;28;20464;-74
2022/08/26 05:50:20;;;;;;;10.53;9.60;;;;;;;;;;5053808;28;20812;-75
2022/08/26 05:52:48;;;;;;;11.60;10.53;;;;;;;;;;5054982;28;20456;-76
2022/08/26 05:55:15;;;;;;;11.30;10.27;;;;;;;;;;5054202;28;20481;-75
2022/08/26 05:57:43;;;;;;;10.97;10.07;;;;;;;;;;5053457;28;21025;-75
2022/08/26 06:00:11;;;;;;;11.90;10.80;;;;;;;;;;5053682;28;20528;-75
2022/08/26 06:02:38;;;;;;;10.87;9.80;;;;;;;;;;5053708;28;20484;-76
2022/08/26 06:05:05;;;;;;;10.67;9.67;;;;;;;;;;5054053;28;20446;-75
2022/08/26 06:10:14;;;;;;;10.80;9.80;;;;;;;;;;5052796;28;20434;-76
2022/08/26 06:12:41;;;;;;;10.57;9.50;;;;;;;;;;5052646;28;20437;-74
2022/08/26 06:15:10;;;;;;;10.30;9.60;;;;;;;;;;5052772;28;20467;-75
2022/08/26 06:17:37;;;;;;;9.90;9.10;;;;;;;;;;5052530;28;20511;-74
2022/08/26 06:20:05;;;;;;;11.03;9.93;;;;;;;;;;5052650;28;20445;-75
2022/08/26 06:28:01;;;;;;;10.77;9.73;;;;;;;;;;5053440;28;20444;-75
2022/08/26 06:30:30;;;;;;;10.20;9.40;;;;;;;;;;5052666;28;20533;-75
2022/08/26 06:32:57;;;;;;;11.00;9.90;;;;;;;;;;5052529;28;20495;-75
2022/08/26 06:35:24;;;;;;;11.73;10.63;;;;;;;;;;5053046;28;20515;-76
2022/08/26 06:37:51;;;;;;;10.93;9.97;;;;;;;;;;5053136;28;20449;-75
2022/08/26 06:40:19;;;;;;;9.90;9.10;;;;;;;;;;5053086;28;20456;-75
2022/08/26 06:42:46;;;;;;;11.87;10.77;;;;;;;;;;5051779;28;20546;-75
2022/08/26 06:45:13;;;;;;;14.67;10.13;;;;;;;;;;5051953;28;20823;-74
2022/08/26 06:47:42;;;;;;;10.03;9.33;;;;;;;;;;5052894;28;20508;-74
2022/08/26 06:50:09;;;;;;;13.17;10.17;;;;;;;;;;5054505;28;20437;-75
2022/08/26 06:52:36;;;;;;;10.67;9.63;;;;;;;;;;5052150;28;20450;-75
2022/08/26 06:55:03;;;;;;;10.13;9.27;;;;;;;;;;5047355;28;20449;-74
2022/08/26 06:57:33;;;;;;;10.53;9.60;;;;;;;;;;5053684;28;20473;-76
2022/08/26 07:00:00;;;;;;;11.13;9.77;;;;;;;;;;5054967;28;20946;-76
2022/08/26 07:02:27;;;;;;;10.17;9.37;;;;;;;;;;5052538;28;20954;-74
2022/08/26 07:04:55;;;;;;;11.03;10.10;;;;;;;;;;5052966;28;20437;-75
2022/08/26 07:07:22;;;;;;;11.60;9.97;;;;;;;;;;5052720;28;20462;-75
2022/08/26 07:09:49;;;;;;;11.63;10.73;;;;;;;;;;5052120;28;20533;-74
2022/08/26 07:12:16;;;;;;;11.50;10.40;;;;;;;;;;5052328;28;20491;-76
2022/08/26 07:14:43;;;;;;;11.37;10.00;;;;;;;;;;5051793;28;20446;-75
2022/08/26 07:17:10;;;;;;;11.87;10.77;;;;;;;;;;5051910;28;20494;-75
2022/08/26 07:19:42;;;;;;;10.63;9.67;;;;;;;;;;5052180;28;20441;-75
2022/08/26 07:22:11;;;;;;;11.70;10.63;;;;;;;;;;5051604;28;20485;-74
2022/08/26 07:24:39;;;;;;;12.60;10.67;;;;;;;;;;5051443;28;20487;-75
2022/08/26 07:27:08;;;;;;;10.40;9.60;;;;;;;;;;5051891;28;20462;-74
2022/08/26 07:29:35;;;;;;;11.27;10.20;;;;;;;;;;5051613;28;20483;-75
2022/08/26 07:32:03;;;;;;;11.13;10.03;;;;;;;;;;5051391;28;20902;-75
2022/08/26 07:34:31;;;;;;;11.07;9.90;;;;;;;;;;5051118;28;20442;-76
2022/08/26 07:36:58;;;;;;;14.83;10.43;;;;;;;;;;5051232;28;20544;-74
2022/08/26 07:39:27;;;;;;;11.47;10.03;;;;;;;;;;5051770;28;20449;-75
2022/08/26 07:41:54;;;;;;;10.73;9.73;;;;;;;;;;5051029;28;20660;-76
2022/08/26 07:44:21;;;;;;;11.30;10.37;;;;;;;;;;5051031;28;20853;-75
2022/08/26 07:46:48;;;;;;;11.93;10.83;;;;;;;;;;5051308;28;20484;-74
2022/08/26 07:49:16;;;;;;;11.27;10.13;;;;;;;;;;5051157;28;20449;-75
2022/08/26 07:51:43;;;;;;;11.00;10.00;;;;;;;;;;5050191;28;20457;-75
2022/08/26 07:54:10;;;;;;;10.43;9.57;;;;;;;;;;5050795;28;20442;-75
2022/08/26 07:56:38;;;;;;;10.83;9.90;;;;;;;;;;5051251;28;20526;-75
2022/08/26 07:59:05;;;;;;;10.93;9.93;;;;;;;;;;5051184;28;20442;-75
2022/08/26 08:01:33;;;;;;;11.40;9.73;;;;;;;;;;5051321;28;20531;-75
2022/08/26 08:04:00;;;;;;;10.30;9.13;;;;;;;;;;5051247;28;20540;-75
2022/08/26 08:06:27;;;;;;;9.60;8.70;;;;;;;;;;5050884;28;20969;-75
2022/08/26 08:08:55;;;;;;;9.77;8.73;;;;;;;;;;5051348;28;20437;-75
2022/08/26 08:11:22;;;;;;;10.77;9.87;;;;;;;;;;5051192;28;20446;-74
2022/08/26 08:13:51;;;;;;;8.63;7.93;;;;;;;;;;5050957;28;20437;-75
2022/08/26 08:16:18;;;;;;;9.50;8.70;;;;;;;;;;5050989;28;20581;-74
2022/08/26 08:18:45;;;;;;;9.53;8.73;;;;;;;;;;5051540;28;20434;-75
2022/08/26 08:21:12;;;;;;;9.67;7.90;;;;;;;;;;5051060;28;20449;-74
2022/08/26 08:23:39;;;;;;;9.47;8.50;;;;;;;;;;5050957;28;20489;-75
2022/08/26 08:26:07;;;;;;;8.80;7.90;;;;;;;;;;5051183;28;20553;-75
2022/08/26 08:28:35;;;;;;;8.70;7.80;;;;;;;;;;5051032;28;20459;-73
2022/08/26 08:31:03;;;;;;;8.60;8.00;;;;;;;;;;5050796;28;20441;-74
2022/08/26 08:33:31;;;;;;;8.70;7.80;;;;;;;;;;5050556;28;20503;-74
2022/08/26 08:35:58;;;;;;;9.37;8.00;;;;;;;;;;5050909;28;20732;-75
2022/08/26 08:38:25;;;;;;;8.50;7.90;;;;;;;;;;5050902;28;20442;-74
2022/08/26 08:40:52;;;;;;;8.67;7.40;;;;;;;;;;5051157;28;20842;-75
2022/08/26 08:43:25;;;;;;;7.13;6.63;;;;;;;;;;5050287;28;20473;-75
2022/08/26 08:45:55;;;;;;;9.27;7.30;;;;;;;;;;5050399;28;20876;-76
2022/08/26 08:48:25;;;;;;;9.20;6.67;;;;;;;;;;5052660;28;20469;-75
2022/08/26 08:50:54;;;;;;;8.33;7.43;;;;;;;;;;5052069;28;20536;-75
2022/08/26 08:53:22;;;;;;;8.67;7.97;;;;;;;;;;5052763;28;20495;-75
2022/08/26 08:56:01;;;;;;;7.50;6.80;;;;;;;;;;5054697;28;20454;-75
2022/08/26 08:58:35;;;;;;;7.90;7.10;;;;;;;;;;5054747;28;20445;-75
2022/08/26 09:01:05;;;;;;;7.53;6.93;;;;;;;;;;5054594;28;20440;-76
2022/08/26 09:03:37;;;;;;;7.93;7.23;;;;;;;;;;5054245;28;20546;-75
2022/08/26 09:06:15;;;;;;;7.40;6.73;;;;;;;;;;5051086;28;20527;-76
2022/08/26 09:08:42;;;;;;;7.60;6.23;;;;;;;;;;5048633;28;20441;-74
2022/08/26 09:11:09;;;;;;;7.53;6.50;;;;;;;;;;5047140;28;20503;-75
2022/08/26 09:13:38;;;;;;;8.30;7.47;;;;;;;;;;5050865;28;20441;-76
2022/08/26 09:16:07;;;;;;;7.20;6.60;;;;;;;;;;5054053;28;20457;-74
2022/08/26 09:18:51;;;;;;;7.00;6.50;;;;;;;;;;5055149;28;20437;-75
2022/08/26 09:21:22;;;;;;;8.10;6.47;;;;;;;;;;5056268;28;20524;-75
2022/08/26 09:23:49;;;;;;;8.57;7.67;;;;;;;;;;5053844;28;21017;-75
2022/08/26 09:26:18;;;;;;;7.50;6.80;;;;;;;;;;5054173;28;20476;-75
2022/08/26 09:28:46;;;;;;;8.63;6.10;;;;;;;;;;5054160;28;20445;-75
2022/08/26 09:31:15;;;;;;;7.43;6.73;;;;;;;;;;5054047;28;20849;-76
2022/08/26 09:33:42;;;;;;;7.77;6.00;;;;;;;;;;5049834;28;20925;-75
2022/08/26 09:36:15;;;;;;;7.60;6.10;;;;;;;;;;5053833;28;20871;-76
2022/08/26 09:38:43;;;;;;;6.30;5.80;;;;;;;;;;5053853;28;20491;-76
2022/08/26 09:41:20;;;;;;;6.37;5.77;;;;;;;;;;5053896;28;20445;-76
2022/08/26 09:44:08;;;;;;;6.67;6.27;;;;;;;;;;5053415;28;20473;-76
2022/08/26 09:46:35;;;;;;;6.67;6.00;;;;;;;;;;5053525;28;20484;-75
2022/08/26 09:49:20;;;;;;;7.37;6.77;;;;;;;;;;5053937;28;20953;-75
2022/08/26 09:51:49;;;;;;;7.73;6.10;;;;;;;;;;5055875;28;20858;-75
2022/08/26 09:54:25;;;;;;;7.30;6.33;;;;;;;;;;5054763;28;20527;-74
2022/08/26 09:56:53;;;;;;;7.80;7.00;;;;;;;;;;5053219;28;21057;-75
2022/08/26 09:59:29;;;;;;;7.73;7.10;;;;;;;;;;5053659;28;20441;-75
2022/08/26 10:01:56;;;;;;;8.47;7.17;;;;;;;;;;5053678;28;20857;-75
2022/08/26 10:04:25;;;;;;;7.87;6.43;;;;;;;;;;5052718;28;21023;-75
2022/08/26 10:06:58;;;;;;;7.73;7.00;;;;;;;;;;5053204;28;20527;-75
2022/08/26 10:09:25;;;;;;;7.80;7.10;;;;;;;;;;5053185;28;20450;-75
2022/08/26 10:11:54;;;;;;;8.83;7.70;;;;;;;;;;5053189;28;20442;-75
2022/08/26 10:14:24;;;;;;;9.20;8.30;;;;;;;;;;5051401;28;20438;-75
2022/08/26 10:16:55;;;;;;;9.80;8.30;;;;;;;;;;5050802;28;20576;-76
2022/08/26 10:19:25;;;;;;;8.53;7.67;;;;;;;;;;5051789;28;20481;-75
2022/08/26 10:21:54;;;;;;;10.13;7.77;;;;;;;;;;5052061;28;20468;-75
2022/08/26 10:24:26;;;;;;;8.73;7.80;;;;;;;;;;5051557;28;20489;-75
2022/08/26 10:26:59;;;;;;;10.60;7.60;;;;;;;;;;5051806;28;20969;-75
2022/08/26 10:29:32;;;;;;;10.70;7.80;;;;;;;;;;5051962;28;20453;-75
2022/08/26 10:32:02;;;;;;;10.43;7.60;;;;;;;;;;5051435;28;20912;-75
2022/08/26 10:34:29;;;;;;;10.43;7.80;;;;;;;;;;5049401;28;20517;-75
2022/08/26 10:36:58;;;;;;;10.13;7.90;;;;;;;;;;5051002;28;20499;-74
2022/08/26 10:39:29;;;;;;;8.97;7.23;;;;;;;;;;5051211;28;20945;-76
2022/08/26 10:42:00;;;;;;;11.40;8.00;;;;;;;;;;5050898;28;20450;-74
2022/08/26 10:44:28;;;;;;;9.60;8.10;;;;;;;;;;5050550;28;20535;-75
2022/08/26 10:46:56;;;;;;;12.13;7.03;;;;;;;;;;5051152;28;20976;-75
2022/08/26 10:49:23;;;;;;;13.50;8.77;;;;;;;;;;5051106;28;20990;-75
2022/08/26 10:51:54;;;;;;;9.33;7.47;;;;;;;;;;5051370;28;20445;-75
2022/08/26 10:54:26;;;;;;;7.37;6.67;;;;;;;;;;5051093;28;20453;-75
2022/08/26 10:56:57;;;;;;;7.70;6.90;;;;;;;;;;5051267;28;20472;-74
2022/08/26 10:59:28;;;;;;;10.37;7.10;;;;;;;;;;5051731;28;20445;-75
2022/08/26 11:02:00;;;;;;;9.27;6.30;;;;;;;;;;5051341;28;20499;-75
2022/08/26 11:04:37;;;;;;;9.20;6.70;;;;;;;;;;5050780;28;20477;-76
2022/08/26 11:07:23;;;;;;;7.27;6.57;;;;;;;;;;5051157;28;20472;-76
2022/08/26 11:09:50;;;;;;;8.57;5.87;;;;;;;;;;5051133;28;20960;-76
2022/08/26 11:12:36;;;;;;;7.20;6.50;;;;;;;;;;5051306;28;20479;-77
2022/08/26 11:15:06;;;;;;;10.77;6.70;;;;;;;;;;5050115;28;20813;-75
2022/08/26 11:17:51;;;;;;;7.40;6.70;;;;;;;;;;5046907;28;20535;-75
2022/08/26 11:20:32;;;;;;;7.83;7.03;;;;;;;;;;5050265;28;20856;-75
2022/08/26 11:23:27;;;;;;;7.40;6.57;;;;;;;;;;5046825;28;20526;-76
2022/08/26 11:26:14;;;;;;;9.33;7.93;;;;;;;;;;5045981;28;20453;-75
2022/08/26 11:28:42;;;;;;;11.87;7.17;;;;;;;;;;5050714;28;20445;-75
2022/08/26 11:31:12;;;;;;;9.07;7.47;;;;;;;;;;5050964;28;20441;-76
2022/08/26 11:33:56;;;;;;;8.43;6.77;;;;;;;;;;5050050;28;20437;-75
2022/08/26 11:36:38;;;;;;;15.23;7.57;;;;;;;;;;5050648;28;20972;-76
2022/08/26 11:39:13;;;;;;;8.57;6.73;;;;;;;;;;5045166;28;21039;-76
2022/08/26 11:41:43;;;;;;;8.80;7.33;;;;;;;;;;5050080;28;20445;-76
2022/08/26 11:44:10;;;;;;;7.43;6.80;;;;;;;;;;5049780;28;20507;-76
2022/08/26 11:46:38;;;;;;;11.40;7.30;;;;;;;;;;5049743;28;21023;-75
2022/08/26 11:49:06;;;;;;;9.37;7.03;;;;;;;;;;5050068;28;20450;-75
2022/08/26 11:51:34;;;;;;;8.30;7.37;;;;;;;;;;5050518;28;20445;-76
2022/08/26 11:54:11;;;;;;;8.00;7.07;;;;;;;;;;5049983;28;20437;-76
2022/08/26 11:56:40;;;;;;;7.73;7.00;;;;;;;;;;5050188;28;20466;-77
2022/08/26 11:59:09;;;;;;;7.70;6.20;;;;;;;;;;5050643;28;20476;-76
2022/08/26 12:01:37;;;;;;;7.63;6.70;;;;;;;;;;5051098;28;20488;-76
2022/08/26 12:04:06;;;;;;;8.90;6.80;;;;;;;;;;5049385;28;20512;-75
2022/08/26 12:06:36;;;;;;;8.00;6.97;;;;;;;;;;5049652;28;20469;-76
2022/08/26 12:09:05;;;;;;;10.00;7.07;;;;;;;;;;5049768;28;20461;-75
2022/08/26 12:11:33;;;;;;;9.10;7.60;;;;;;;;;;5049111;28;20942;-76
2022/08/26 12:14:01;;;;;;;7.73;7.03;;;;;;;;;;5049130;28;20491;-76
2022/08/26 12:16:30;;;;;;;8.83;7.00;;;;;;;;;;5049673;28;20480;-76
2022/08/26 12:18:57;;;;;;;15.83;7.43;;;;;;;;;;5049907;28;20469;-76
2022/08/26 12:21:28;;;;;;;7.27;6.53;;;;;;;;;;5050396;28;20878;-76
2022/08/26 12:23:56;;;;;;;8.23;6.73;;;;;;;;;;5050379;28;20580;-74
2022/08/26 12:26:25;;;;;;;8.70;7.33;;;;;;;;;;5050300;28;20538;-76
2022/08/26 12:28:54;;;;;;;9.43;7.20;;;;;;;;;;5053636;28;20507;-75
2022/08/26 12:31:23;;;;;;;7.43;6.67;;;;;;;;;;5054291;28;20449;-76
2022/08/26 12:33:50;;;;;;;12.93;7.20;;;;;;;;;;5054317;28;20929;-74
2022/08/26 12:36:20;;;;;;;10.47;7.20;;;;;;;;;;5054092;28;20461;-75
2022/08/26 12:38:49;;;;;;;8.33;7.33;;;;;;;;;;5053775;28;20453;-75
2022/08/26 12:41:31;;;;;;;7.73;6.80;;;;;;;;;;5053745;28;20472;-76
2022/08/26 12:43:58;;;;;;;8.97;7.30;;;;;;;;;;5053547;28;20534;-76
2022/08/26 12:46:27;;;;;;;10.53;7.30;;;;;;;;;;5053511;28;20530;-78
2022/08/26 12:48:59;;;;;;;8.20;7.40;;;;;;;;;;5053729;28;20560;-76
2022/08/26 12:51:27;;;;;;;10.43;7.07;;;;;;;;;;5054213;28;20868;-75
2022/08/26 12:53:56;;;;;;;10.00;6.90;;;;;;;;;;5053149;28;20515;-76
2022/08/26 12:56:27;;;;;;;9.87;7.83;;;;;;;;;;5053400;28;20522;-76
2022/08/26 12:59:02;;;;;;;10.97;7.20;;;;;;;;;;5052237;28;21186;-76
2022/08/26 13:01:36;;;;;;;11.30;7.40;;;;;;;;;;5051981;28;20510;-76
2022/08/26 13:04:05;;;;;;;9.57;7.60;;;;;;;;;;5051485;28;20484;-76
2022/08/26 13:06:33;;;;;;;13.67;7.00;;;;;;;;;;5052211;28;20457;-77
2022/08/26 13:09:04;;;;;;;9.00;7.70;;;;;;;;;;5052206;28;20476;-75
2022/08/26 13:11:32;;;;;;;8.70;7.63;;;;;;;;;;5052318;28;20445;-75
2022/08/26 13:14:00;;;;;;;14.70;7.60;;;;;;;;;;5052571;28;20813;-74
2022/08/26 13:16:27;;;;;;;9.30;8.27;;;;;;;;;;5054055;28;21057;-75
2022/08/26 13:18:56;;;;;;;11.13;7.57;;;;;;;;;;5054067;28;20506;-76
2022/08/26 13:21:25;;;;;;;8.73;7.07;;;;;;;;;;5053169;28;20449;-75
2022/08/26 13:23:53;;;;;;;13.40;8.30;;;;;;;;;;5052818;28;20780;-75
2022/08/26 13:26:21;;;;;;;15.33;7.93;;;;;;;;;;5053529;28;21114;-75
2022/08/26 13:28:49;;;;;;;11.97;7.13;;;;;;;;;;5052713;28;20476;-74
2022/08/26 13:31:17;;;;;;;7.83;7.17;;;;;;;;;;5052692;28;20460;-75
2022/08/26 13:33:44;;;;;;;8.57;6.90;;;;;;;;;;5052257;28;20515;-75
2022/08/26 13:36:12;;;;;;;9.33;6.90;;;;;;;;;;5052774;28;20465;-75
2022/08/26 13:38:39;;;;;;;11.33;7.00;;;;;;;;;;5051639;28;20441;-75
2022/08/26 13:41:06;;;;;;;9.13;6.97;;;;;;;;;;5052739;28;20449;-76
2022/08/26 13:43:34;;;;;;;10.73;6.37;;;;;;;;;;5052278;28;20441;-76
2022/08/26 13:46:02;;;;;;;9.43;6.10;;;;;;;;;;5052566;28;20495;-75
2022/08/26 13:48:30;;;;;;;6.80;5.33;;;;;;;;;;5053071;28;20446;-75
2022/08/26 13:50:57;;;;;;;10.07;5.90;;;;;;;;;;5053094;28;20449;-76
2022/08/26 13:53:24;;;;;;;6.30;4.83;;;;;;;;;;5052664;28;20433;-76
2022/08/26 13:55:52;;;;;;;7.67;5.30;;;;;;;;;;5052384;28;20472;-75
2022/08/26 13:58:19;;;;;;;8.93;5.73;;;;;;;;;;5052240;28;20515;-75
2022/08/26 14:00:47;;;;;;;8.53;6.10;;;;;;;;;;5052731;28;20441;-75
2022/08/26 14:03:14;;;;;;;9.70;6.50;;;;;;;;;;5051868;28;20503;-75
2022/08/26 14:05:41;;;;;;;11.20;7.10;;;;;;;;;;5052258;28;20842;-75
2022/08/26 14:08:08;;;;;;;13.13;6.27;;;;;;;;;;5051644;28;20464;-74
2022/08/26 14:10:35;;;;;;;7.43;6.73;;;;;;;;;;5052005;28;20442;-75
2022/08/26 14:13:03;;;;;;;7.57;5.70;;;;;;;;;;5051765;28;20484;-76
2022/08/26 14:15:32;;;;;;;12.93;6.50;;;;;;;;;;5052314;28;20492;-75
2022/08/26 14:18:02;;;;;;;9.67;6.30;;;;;;;;;;5052127;28;20454;-75
2022/08/26 14:20:30;;;;;;;8.43;6.20;;;;;;;;;;5051749;28;20441;-74
2022/08/26 14:22:58;;;;;;;10.40;6.70;;;;;;;;;;5052222;28;21224;-75
2022/08/26 14:25:25;;;;;;;7.97;6.20;;;;;;;;;;5051543;28;20478;-74
2022/08/26 14:27:52;;;;;;;7.87;7.10;;;;;;;;;;5051764;28;20445;-74
2022/08/26 14:30:20;;;;;;;11.13;6.40;;;;;;;;;;5051567;28;20448;-75
2022/08/26 14:32:48;;;;;;;11.73;6.57;;;;;;;;;;5051188;28;20499;-76
2022/08/26 14:35:19;;;;;;;12.10;7.30;;;;;;;;;;5051320;28;20449;-75
2022/08/26 14:37:46;;;;;;;10.30;6.80;;;;;;;;;;5051701;28;20448;-75
2022/08/26 14:40:17;;;;;;;7.70;6.50;;;;;;;;;;5052773;28;20442;-75
2022/08/26 14:42:44;;;;;;;10.90;7.30;;;;;;;;;;5051229;28;20453;-76
2022/08/26 14:45:14;;;;;;;8.80;6.50;;;;;;;;;;5051156;28;20853;-76
2022/08/26 14:47:41;;;;;;;7.80;6.90;;;;;;;;;;5051115;28;20481;-76
2022/08/26 14:50:09;;;;;;;7.90;6.30;;;;;;;;;;5051739;28;20445;-75
2022/08/26 14:55:18;;;;;;;9.50;6.83;;;;;;;;;;5050867;28;20544;-75
2022/08/26 14:57:45;;;;;;;11.47;7.20;;;;;;;;;;5053502;28;20449;-75
2022/08/26 15:00:12;;;;;;;11.67;6.87;;;;;;;;;;5054118;28;20491;-76